Time;durP1;ratioP1;P1;durP2;ratioP2;P2;SDS_P1;SDS_P2;PMS_P1;PMS_P2;Temp;Humidity;BMP_temperature;BMP_pressure;BME280_temperature;BME280_humidity;BME280_pressure;Samples;Min_cycle;Max_cycle;Signal;HPM_P1;HPM_P2
2022/05/28 00:00:54;;;;;;;1.50;1.10;;;;;;;;;;5072251;28;20466;-78
2022/05/28 00:03:23;;;;;;;1.88;1.20;;;;;;;;;;5071859;28;20394;-78
2022/05/28 00:05:49;;;;;;;1.50;1.30;;;;;;;;;;5071992;28;20415;-78
2022/05/28 00:08:16;;;;;;;1.33;1.20;;;;;;;;;;5051586;28;20392;-79
2022/05/28 00:10:42;;;;;;;1.50;1.27;;;;;;;;;;5071851;28;20429;-79
2022/05/28 00:13:08;;;;;;;1.20;1.10;;;;;;;;;;5072147;28;20805;-79
2022/05/28 00:15:34;;;;;;;1.23;1.10;;;;;;;;;;5071969;28;20419;-79
2022/05/28 00:18:01;;;;;;;1.75;1.30;;;;;;;;;;5071912;28;20379;-78
2022/05/28 00:20:27;;;;;;;2.27;1.30;;;;;;;;;;5071817;28;20383;-79
2022/05/28 00:22:53;;;;;;;1.30;1.00;;;;;;;;;;5071793;28;20470;-78
2022/05/28 00:25:19;;;;;;;1.08;0.98;;;;;;;;;;5062518;28;20504;-78
2022/05/28 00:27:45;;;;;;;1.23;1.10;;;;;;;;;;5051511;28;20377;-78
2022/05/28 00:30:13;;;;;;;1.70;1.40;;;;;;;;;;5049827;28;20894;-78
2022/05/28 00:32:40;;;;;;;1.30;1.20;;;;;;;;;;5053862;28;20383;-79
2022/05/28 00:35:07;;;;;;;1.50;1.23;;;;;;;;;;5052067;28;20389;-79
2022/05/28 00:37:33;;;;;;;1.15;1.05;;;;;;;;;;5068727;28;20475;-79
2022/05/28 00:40:01;;;;;;;1.48;1.30;;;;;;;;;;5071763;28;20391;-78
2022/05/28 00:42:27;;;;;;;2.08;1.25;;;;;;;;;;5053171;28;20391;-78
2022/05/28 00:44:53;;;;;;;1.90;1.30;;;;;;;;;;5070013;28;20415;-78
2022/05/28 00:47:20;;;;;;;1.45;1.30;;;;;;;;;;5071282;28;20455;-78
2022/05/28 00:49:46;;;;;;;1.20;1.10;;;;;;;;;;5071189;28;20384;-79
2022/05/28 00:52:12;;;;;;;1.58;1.30;;;;;;;;;;5071552;28;20376;-78
2022/05/28 00:54:41;;;;;;;1.67;1.33;;;;;;;;;;5071504;28;20490;-78
2022/05/28 00:57:08;;;;;;;1.83;1.30;;;;;;;;;;5071761;28;20405;-78
2022/05/28 00:59:34;;;;;;;1.23;1.10;;;;;;;;;;5071407;28;20396;-78
2022/05/28 01:02:06;;;;;;;1.48;1.00;;;;;;;;;;5072489;28;20445;-79
2022/05/28 01:04:55;;;;;;;2.13;1.27;;;;;;;;;;5049414;28;20455;-79
2022/05/28 01:07:25;;;;;;;1.65;1.30;;;;;;;;;;5036789;28;20399;-79
2022/05/28 01:10:02;;;;;;;1.92;1.20;;;;;;;;;;5040579;28;20365;-79
2022/05/28 01:12:31;;;;;;;1.50;1.23;;;;;;;;;;5042417;28;20482;-78
2022/05/28 01:15:03;;;;;;;1.70;1.20;;;;;;;;;;5034823;28;20391;-78
2022/05/28 01:17:41;;;;;;;1.30;1.20;;;;;;;;;;5072690;28;20434;-78
2022/05/28 01:20:11;;;;;;;1.55;1.15;;;;;;;;;;5072945;28;20391;-78
2022/05/28 01:22:47;;;;;;;1.77;1.30;;;;;;;;;;5067350;28;20507;-78
2022/05/28 01:25:19;;;;;;;1.73;1.23;;;;;;;;;;5067127;28;20935;-78
2022/05/28 01:27:47;;;;;;;1.30;1.20;;;;;;;;;;5073625;28;20376;-78
2022/05/28 01:30:14;;;;;;;1.35;1.25;;;;;;;;;;5061788;28;20902;-78
2022/05/28 01:32:40;;;;;;;1.23;1.13;;;;;;;;;;5058994;28;20380;-78
2022/05/28 01:35:08;;;;;;;1.65;1.13;;;;;;;;;;5074769;28;20797;-78
2022/05/28 01:37:35;;;;;;;1.53;1.20;;;;;;;;;;5074493;28;20876;-78
2022/05/28 01:40:02;;;;;;;1.20;1.10;;;;;;;;;;5074727;28;20804;-79
2022/05/28 01:42:29;;;;;;;1.63;1.10;;;;;;;;;;5057130;28;20387;-78
2022/05/28 01:44:55;;;;;;;1.40;1.25;;;;;;;;;;5074310;28;20407;-78
2022/05/28 01:47:22;;;;;;;1.30;1.20;;;;;;;;;;5074308;28;20513;-78
2022/05/28 01:49:49;;;;;;;1.10;1.00;;;;;;;;;;5074177;28;20383;-78
2022/05/28 01:52:15;;;;;;;1.50;1.40;;;;;;;;;;5056198;28;20395;-78
2022/05/28 01:54:43;;;;;;;1.98;1.60;;;;;;;;;;5074227;28;20388;-78
2022/05/28 01:57:09;;;;;;;1.50;1.30;;;;;;;;;;5074192;28;20376;-78
2022/05/28 01:59:35;;;;;;;1.52;1.42;;;;;;;;;;5074007;28;20412;-78
2022/05/28 02:02:03;;;;;;;1.40;1.30;;;;;;;;;;5064887;28;20378;-79
2022/05/28 02:04:30;;;;;;;1.50;1.33;;;;;;;;;;5064445;28;20408;-78
2022/05/28 02:06:56;;;;;;;1.70;1.40;;;;;;;;;;5074161;28;20376;-78
2022/05/28 02:09:27;;;;;;;1.63;1.33;;;;;;;;;;5073911;28;20375;-78
2022/05/28 02:11:53;;;;;;;1.60;1.30;;;;;;;;;;5073675;28;20380;-78
2022/05/28 02:14:36;;;;;;;1.50;1.40;;;;;;;;;;5072849;28;20421;-78
2022/05/28 02:17:14;;;;;;;1.50;1.40;;;;;;;;;;5064673;28;20381;-78
2022/05/28 02:19:46;;;;;;;1.45;1.35;;;;;;;;;;5063420;28;20376;-78
2022/05/28 02:22:44;;;;;;;1.40;1.30;;;;;;;;;;5073575;28;20379;-78
2022/05/28 02:25:11;;;;;;;1.50;1.40;;;;;;;;;;4997217;28;20475;-78
2022/05/28 02:27:42;;;;;;;1.83;1.30;;;;;;;;;;5046931;28;20498;-78
2022/05/28 02:30:09;;;;;;;1.77;1.35;;;;;;;;;;5044520;28;20388;-78
2022/05/28 02:32:35;;;;;;;1.35;1.23;;;;;;;;;;5071548;28;20403;-78
2022/05/28 02:35:01;;;;;;;1.60;1.50;;;;;;;;;;5072165;28;20411;-78
2022/05/28 02:37:28;;;;;;;1.97;1.30;;;;;;;;;;5073358;28;20388;-78
2022/05/28 02:39:54;;;;;;;1.53;1.27;;;;;;;;;;5073305;28;20407;-78
2022/05/28 02:42:20;;;;;;;1.50;1.40;;;;;;;;;;5055889;28;20890;-78
2022/05/28 02:44:46;;;;;;;1.58;1.48;;;;;;;;;;5073129;28;20553;-78
2022/05/28 02:47:12;;;;;;;1.33;1.20;;;;;;;;;;5073168;28;20799;-78
2022/05/28 02:49:38;;;;;;;1.63;1.52;;;;;;;;;;5072986;28;20384;-78
2022/05/28 02:52:05;;;;;;;1.70;1.30;;;;;;;;;;5072985;28;20433;-78
2022/05/28 02:54:32;;;;;;;1.75;1.25;;;;;;;;;;5072891;28;20411;-78
2022/05/28 02:56:58;;;;;;;1.45;1.33;;;;;;;;;;5072895;28;20398;-78
2022/05/28 02:59:24;;;;;;;1.67;1.50;;;;;;;;;;5072681;28;20404;-78
2022/05/28 03:01:50;;;;;;;1.85;1.20;;;;;;;;;;5072704;28;20896;-77
2022/05/28 03:04:16;;;;;;;1.50;1.40;;;;;;;;;;5072747;28;20379;-78
2022/05/28 03:06:42;;;;;;;2.67;1.77;;;;;;;;;;5072691;28;20438;-78
2022/05/28 03:09:08;;;;;;;1.73;1.52;;;;;;;;;;5072716;28;20384;-78
2022/05/28 03:11:35;;;;;;;1.50;1.40;;;;;;;;;;5072722;28;20384;-78
2022/05/28 03:14:01;;;;;;;2.30;1.90;;;;;;;;;;5069550;28;20841;-78
2022/05/28 03:16:27;;;;;;;2.00;1.55;;;;;;;;;;5063715;28;20380;-78
2022/05/28 03:18:53;;;;;;;1.90;1.55;;;;;;;;;;5072780;28;20474;-78
2022/05/28 03:21:19;;;;;;;2.20;2.00;;;;;;;;;;5072523;28;20376;-78
2022/05/28 03:23:47;;;;;;;2.38;1.85;;;;;;;;;;5072784;28;20383;-78
2022/05/28 03:26:13;;;;;;;1.88;1.50;;;;;;;;;;5072529;28;20399;-78
2022/05/28 03:28:39;;;;;;;1.67;1.58;;;;;;;;;;5072510;28;20459;-78
2022/05/28 03:31:05;;;;;;;2.25;1.65;;;;;;;;;;5072382;28;20376;-78
2022/05/28 03:33:31;;;;;;;2.00;1.80;;;;;;;;;;5072285;28;20391;-78
2022/05/28 03:35:57;;;;;;;2.03;1.83;;;;;;;;;;5072247;28;20833;-78
2022/05/28 03:38:23;;;;;;;1.90;1.60;;;;;;;;;;5072312;28;20391;-78
2022/05/28 03:40:49;;;;;;;1.90;1.70;;;;;;;;;;5060395;28;20386;-78
2022/05/28 03:43:15;;;;;;;2.05;1.88;;;;;;;;;;5059926;28;20474;-78
2022/05/28 03:45:41;;;;;;;1.95;1.70;;;;;;;;;;5072171;28;20435;-78
2022/05/28 03:48:09;;;;;;;1.70;1.60;;;;;;;;;;5072090;28;20801;-78
2022/05/28 03:50:35;;;;;;;2.47;1.58;;;;;;;;;;5072236;28;20761;-78
2022/05/28 03:53:01;;;;;;;2.78;1.80;;;;;;;;;;5072053;28;20384;-78
2022/05/28 03:55:27;;;;;;;1.70;1.60;;;;;;;;;;5072054;28;20505;-78
2022/05/28 03:57:53;;;;;;;2.17;1.73;;;;;;;;;;5072239;28;20986;-78
2022/05/28 04:00:20;;;;;;;2.35;2.05;;;;;;;;;;5071943;28;20869;-78
2022/05/28 04:02:46;;;;;;;2.88;1.90;;;;;;;;;;5071978;28;20379;-78
2022/05/28 04:05:12;;;;;;;2.17;1.93;;;;;;;;;;5069956;28;20399;-78
2022/05/28 04:07:38;;;;;;;1.95;1.80;;;;;;;;;;5044190;28;20941;-78
2022/05/28 04:10:05;;;;;;;2.00;1.90;;;;;;;;;;5045284;28;20433;-77
2022/05/28 04:12:31;;;;;;;2.20;2.00;;;;;;;;;;5061873;28;20389;-78
2022/05/28 04:14:57;;;;;;;3.42;2.30;;;;;;;;;;5051145;28;20403;-77
2022/05/28 04:17:23;;;;;;;2.40;1.80;;;;;;;;;;5070830;28;20383;-77
2022/05/28 04:19:49;;;;;;;2.20;2.00;;;;;;;;;;5072208;28;20380;-78
2022/05/28 04:22:15;;;;;;;2.00;1.80;;;;;;;;;;5071695;28;20741;-78
2022/05/28 04:24:41;;;;;;;2.88;2.05;;;;;;;;;;5071742;28;20410;-78
2022/05/28 04:27:07;;;;;;;2.17;1.97;;;;;;;;;;5058663;28;20370;-78
2022/05/28 04:29:33;;;;;;;2.38;2.17;;;;;;;;;;5058833;28;20706;-78
2022/05/28 04:31:59;;;;;;;3.10;2.30;;;;;;;;;;5071907;28;20408;-77
2022/05/28 04:34:25;;;;;;;3.95;2.17;;;;;;;;;;5071619;28;20376;-78
2022/05/28 04:36:51;;;;;;;2.70;2.00;;;;;;;;;;5072722;28;20444;-78
2022/05/28 04:39:17;;;;;;;3.20;2.50;;;;;;;;;;5075479;28;20376;-78
2022/05/28 04:41:43;;;;;;;3.13;2.70;;;;;;;;;;5068005;28;20558;-78
2022/05/28 04:44:09;;;;;;;2.42;2.03;;;;;;;;;;5065887;28;20908;-77
2022/05/28 04:46:36;;;;;;;2.45;2.25;;;;;;;;;;5075415;28;20376;-77
2022/05/28 04:49:02;;;;;;;2.15;1.95;;;;;;;;;;5075280;28;20872;-77
2022/05/28 04:51:28;;;;;;;3.38;2.10;;;;;;;;;;5075167;28;20790;-77
2022/05/28 04:53:54;;;;;;;2.20;2.00;;;;;;;;;;5075249;28;20487;-77
2022/05/28 04:56:20;;;;;;;1.90;1.80;;;;;;;;;;5075131;28;20425;-77
2022/05/28 04:58:46;;;;;;;2.22;2.10;;;;;;;;;;5074936;28;20395;-77
2022/05/28 05:01:15;;;;;;;2.47;2.28;;;;;;;;;;5075061;28;20372;-77
2022/05/28 05:03:42;;;;;;;2.63;2.40;;;;;;;;;;5075046;28;20809;-78
2022/05/28 05:06:08;;;;;;;3.67;2.33;;;;;;;;;;5075008;28;20395;-77
2022/05/28 05:08:33;;;;;;;2.70;2.50;;;;;;;;;;5074907;28;20719;-77
2022/05/28 05:11:00;;;;;;;3.38;2.50;;;;;;;;;;5075097;28;20372;-77
2022/05/28 05:13:26;;;;;;;2.70;2.50;;;;;;;;;;5063273;28;20380;-77
2022/05/28 05:15:52;;;;;;;2.47;2.28;;;;;;;;;;5074792;28;20399;-78
2022/05/28 05:18:18;;;;;;;2.72;2.40;;;;;;;;;;5074830;28;20376;-77
2022/05/28 05:20:44;;;;;;;2.45;2.25;;;;;;;;;;5074692;28;20382;-78
2022/05/28 05:23:10;;;;;;;2.80;2.30;;;;;;;;;;5074688;28;20384;-78
2022/05/28 05:25:37;;;;;;;2.63;2.43;;;;;;;;;;5074533;28;20399;-78
2022/05/28 05:28:03;;;;;;;2.25;2.05;;;;;;;;;;5074878;28;20466;-78
2022/05/28 05:30:29;;;;;;;3.03;2.40;;;;;;;;;;5058528;28;20850;-78
2022/05/28 05:32:55;;;;;;;2.63;2.08;;;;;;;;;;5074539;28;20451;-78
2022/05/28 05:35:21;;;;;;;2.67;2.15;;;;;;;;;;5074700;28;20908;-78
2022/05/28 05:37:48;;;;;;;2.10;2.00;;;;;;;;;;5072832;28;20372;-78
2022/05/28 05:40:14;;;;;;;2.63;2.20;;;;;;;;;;5055680;28;20391;-78
2022/05/28 05:42:40;;;;;;;2.53;2.30;;;;;;;;;;5057108;28;20429;-78
2022/05/28 05:45:07;;;;;;;4.00;2.10;;;;;;;;;;5074407;28;20464;-78
2022/05/28 05:47:33;;;;;;;2.10;1.90;;;;;;;;;;5074094;28;20462;-78
2022/05/28 05:49:59;;;;;;;2.53;2.33;;;;;;;;;;5069123;28;20427;-78
2022/05/28 05:52:25;;;;;;;2.47;2.27;;;;;;;;;;5054091;28;20381;-78
2022/05/28 05:54:52;;;;;;;3.08;2.50;;;;;;;;;;5073632;28;20391;-78
2022/05/28 05:57:18;;;;;;;2.67;2.47;;;;;;;;;;5074088;28;20785;-78
2022/05/28 05:59:44;;;;;;;3.47;2.45;;;;;;;;;;5073912;28;20399;-78
2022/05/28 06:02:11;;;;;;;3.15;2.85;;;;;;;;;;5073853;28;20380;-78
2022/05/28 06:04:37;;;;;;;3.25;2.95;;;;;;;;;;5073862;28;20993;-77
2022/05/28 06:07:07;;;;;;;4.63;3.42;;;;;;;;;;5069732;28;20370;-77
2022/05/28 06:09:33;;;;;;;4.50;3.47;;;;;;;;;;5054848;28;20399;-79
2022/05/28 06:11:59;;;;;;;4.85;3.10;;;;;;;;;;5073586;28;20459;-77
2022/05/28 06:14:25;;;;;;;4.63;3.23;;;;;;;;;;5056197;28;21023;-78
2022/05/28 06:16:51;;;;;;;4.28;2.70;;;;;;;;;;5068173;28;20462;-77
2022/05/28 06:19:17;;;;;;;6.90;3.30;;;;;;;;;;5073649;28;20448;-78
2022/05/28 06:21:43;;;;;;;4.32;3.05;;;;;;;;;;5073520;28;20384;-79
2022/05/28 06:24:09;;;;;;;6.60;3.13;;;;;;;;;;5073343;28;20376;-85
2022/05/28 06:26:37;;;;;;;5.65;3.60;;;;;;;;;;5055781;28;20422;-85
2022/05/28 06:29:03;;;;;;;5.32;3.60;;;;;;;;;;5068859;28;20758;-84
2022/05/28 06:31:29;;;;;;;7.17;3.50;;;;;;;;;;5061712;28;20423;-84
2022/05/28 06:33:55;;;;;;;7.43;3.10;;;;;;;;;;5072834;28;20430;-84
2022/05/28 06:36:21;;;;;;;7.35;3.25;;;;;;;;;;5072743;28;20746;-85
2022/05/28 06:38:47;;;;;;;4.63;2.85;;;;;;;;;;5038397;28;20877;-86
2022/05/28 06:41:14;;;;;;;6.10;3.03;;;;;;;;;;5058594;28;20395;-85
2022/05/28 06:43:40;;;;;;;5.95;3.08;;;;;;;;;;5037713;28;20376;-85
2022/05/28 06:46:07;;;;;;;6.63;3.63;;;;;;;;;;5054508;28;20784;-86
2022/05/28 06:48:35;;;;;;;6.35;3.70;;;;;;;;;;5072829;28;20384;-84
2022/05/28 06:51:02;;;;;;;7.07;2.90;;;;;;;;;;5072428;28;20853;-86
2022/05/28 06:53:32;;;;;;;4.70;3.00;;;;;;;;;;5072407;28;20417;-86
2022/05/28 06:55:58;;;;;;;7.80;3.20;;;;;;;;;;5072373;28;20870;-86
2022/05/28 06:58:24;;;;;;;6.78;3.47;;;;;;;;;;5072243;28;20857;-86
2022/05/28 07:00:50;;;;;;;5.15;2.63;;;;;;;;;;5071732;28;20821;-84
2022/05/28 07:03:18;;;;;;;5.30;2.92;;;;;;;;;;5072148;28;20387;-85
2022/05/28 07:05:44;;;;;;;8.35;3.15;;;;;;;;;;5072230;28;20406;-86
2022/05/28 07:08:11;;;;;;;4.93;2.95;;;;;;;;;;5072287;28;20380;-86
2022/05/28 07:10:39;;;;;;;5.88;3.10;;;;;;;;;;5069759;28;20384;-82
2022/05/28 07:13:09;;;;;;;7.05;3.10;;;;;;;;;;5061712;28;20906;-83
2022/05/28 07:15:35;;;;;;;5.28;2.95;;;;;;;;;;5072362;28;20387;-83
2022/05/28 07:18:01;;;;;;;5.83;3.00;;;;;;;;;;5064460;28;20429;-83
2022/05/28 07:20:27;;;;;;;7.88;3.13;;;;;;;;;;5035573;28;20739;-83
2022/05/28 07:22:53;;;;;;;5.18;2.92;;;;;;;;;;5033894;28;20458;-84
2022/05/28 07:25:19;;;;;;;6.72;2.97;;;;;;;;;;5031965;28;20411;-83
2022/05/28 07:27:45;;;;;;;8.57;5.05;;;;;;;;;;5065231;28;20402;-83
2022/05/28 07:30:12;;;;;;;5.95;3.22;;;;;;;;;;5061196;28;20405;-83
2022/05/28 07:32:38;;;;;;;7.23;3.60;;;;;;;;;;5070208;28;20467;-84
2022/05/28 07:35:04;;;;;;;6.60;3.17;;;;;;;;;;5071840;28;20380;-84
2022/05/28 07:37:30;;;;;;;7.63;3.30;;;;;;;;;;5071770;28;20380;-83
2022/05/28 07:39:57;;;;;;;5.93;3.08;;;;;;;;;;5071731;28;20375;-84
2022/05/28 07:42:23;;;;;;;4.65;2.83;;;;;;;;;;5054390;28;20444;-85
2022/05/28 07:44:49;;;;;;;7.75;3.70;;;;;;;;;;5071619;28;20964;-84
2022/05/28 07:47:15;;;;;;;4.63;2.85;;;;;;;;;;5071743;28;20382;-84
2022/05/28 07:49:41;;;;;;;5.60;2.78;;;;;;;;;;5071611;28;20518;-84
2022/05/28 07:52:08;;;;;;;7.28;2.85;;;;;;;;;;5071641;28;20371;-84
2022/05/28 07:54:34;;;;;;;5.72;2.95;;;;;;;;;;5053490;28;20888;-84
2022/05/28 07:57:00;;;;;;;6.47;3.10;;;;;;;;;;5053618;28;20750;-83
2022/05/28 07:59:26;;;;;;;5.53;2.78;;;;;;;;;;5059107;28;20599;-82
2022/05/28 08:01:52;;;;;;;4.90;2.80;;;;;;;;;;5068674;28;20383;-82
2022/05/28 08:04:18;;;;;;;6.45;2.85;;;;;;;;;;5071244;28;20388;-82
2022/05/28 08:06:44;;;;;;;5.35;2.50;;;;;;;;;;5059952;28;20378;-83
2022/05/28 08:09:11;;;;;;;6.47;2.67;;;;;;;;;;5058761;28;20445;-82
2022/05/28 08:11:38;;;;;;;9.23;2.95;;;;;;;;;;5065101;28;20776;-82
2022/05/28 08:14:04;;;;;;;5.97;2.53;;;;;;;;;;5066254;28;20371;-82
2022/05/28 08:16:30;;;;;;;6.63;2.88;;;;;;;;;;5075572;28;20741;-83
2022/05/28 08:18:56;;;;;;;6.85;2.90;;;;;;;;;;5074883;28;20784;-84
2022/05/28 08:24:07;;;;;;;6.60;2.63;;;;;;;;;;5075346;28;20383;-83
2022/05/28 08:26:34;;;;;;;5.82;2.42;;;;;;;;;;5075182;28;20411;-83
2022/05/28 08:29:00;;;;;;;4.93;2.20;;;;;;;;;;5075210;28;20378;-83
2022/05/28 08:31:26;;;;;;;4.80;2.60;;;;;;;;;;5075138;28;20784;-83
2022/05/28 08:33:52;;;;;;;3.33;1.90;;;;;;;;;;5075435;28;20375;-83
2022/05/28 08:36:19;;;;;;;4.25;2.22;;;;;;;;;;5063567;28;20382;-83
2022/05/28 08:38:45;;;;;;;3.65;2.42;;;;;;;;;;5067845;28;20722;-83
2022/05/28 08:41:16;;;;;;;2.85;2.00;;;;;;;;;;5074992;28;20382;-83
2022/05/28 08:43:52;;;;;;;5.05;2.13;;;;;;;;;;5058169;28;20376;-83
2022/05/28 08:46:18;;;;;;;4.80;2.40;;;;;;;;;;5060682;28;20482;-84
2022/05/28 08:48:49;;;;;;;4.57;2.25;;;;;;;;;;5056912;28;20873;-83
2022/05/28 08:51:22;;;;;;;3.60;2.30;;;;;;;;;;5074614;28;20387;-83
2022/05/28 08:53:55;;;;;;;4.72;2.45;;;;;;;;;;5074751;28;20416;-83
2022/05/28 08:56:22;;;;;;;5.45;2.15;;;;;;;;;;5070739;28;20384;-83
2022/05/28 08:59:00;;;;;;;4.80;1.95;;;;;;;;;;5074585;28;20935;-84
2022/05/28 09:01:27;;;;;;;4.32;1.70;;;;;;;;;;5060926;28;20389;-83
2022/05/28 09:03:56;;;;;;;3.65;1.55;;;;;;;;;;5074356;28;20392;-83
2022/05/28 09:06:31;;;;;;;5.17;1.90;;;;;;;;;;5056526;28;20781;-83
2022/05/28 09:08:57;;;;;;;4.05;1.70;;;;;;;;;;5074357;28;20372;-83
2022/05/28 09:11:32;;;;;;;3.10;1.60;;;;;;;;;;5066287;28;20383;-84
2022/05/28 09:14:00;;;;;;;5.32;1.63;;;;;;;;;;5074357;28;20416;-83
2022/05/28 09:16:28;;;;;;;5.30;2.10;;;;;;;;;;5074233;28;20376;-84
2022/05/28 09:18:55;;;;;;;6.85;2.20;;;;;;;;;;5073293;28;20751;-83
2022/05/28 09:21:21;;;;;;;4.82;2.33;;;;;;;;;;5074198;28;20418;-84
2022/05/28 09:23:50;;;;;;;3.50;1.60;;;;;;;;;;5073617;28;20892;-83
2022/05/28 09:26:20;;;;;;;3.80;1.50;;;;;;;;;;5074141;28;20780;-84
2022/05/28 09:28:46;;;;;;;3.17;1.55;;;;;;;;;;5074163;28;20396;-84
2022/05/28 09:31:15;;;;;;;3.10;1.48;;;;;;;;;;5074072;28;20387;-83
2022/05/28 09:33:50;;;;;;;2.65;1.20;;;;;;;;;;5074222;28;20387;-84
2022/05/28 09:36:22;;;;;;;2.65;1.58;;;;;;;;;;5074057;28;20380;-84
2022/05/28 09:39:01;;;;;;;2.55;1.40;;;;;;;;;;5074108;28;20433;-84
2022/05/28 09:41:33;;;;;;;4.13;1.50;;;;;;;;;;5066822;28;20385;-84
2022/05/28 09:44:18;;;;;;;3.30;1.33;;;;;;;;;;5067851;28;20383;-85
2022/05/28 09:46:45;;;;;;;2.00;1.15;;;;;;;;;;5073866;28;20395;-84
2022/05/28 09:49:14;;;;;;;3.25;1.48;;;;;;;;;;5069387;28;20383;-85
2022/05/28 09:51:50;;;;;;;3.30;1.30;;;;;;;;;;5073179;28;20437;-84
2022/05/28 09:54:20;;;;;;;2.67;1.30;;;;;;;;;;5073701;28;20406;-84
2022/05/28 09:57:01;;;;;;;2.20;1.30;;;;;;;;;;5073019;28;20383;-87
2022/05/28 09:59:34;;;;;;;4.35;1.42;;;;;;;;;;5054787;28;20396;-86
2022/05/28 10:02:07;;;;;;;2.80;1.10;;;;;;;;;;5072257;28;20383;-85
2022/05/28 10:04:43;;;;;;;2.93;1.30;;;;;;;;;;5073456;28;20383;-85
2022/05/28 10:07:09;;;;;;;3.30;1.20;;;;;;;;;;5056830;28;20488;-86
2022/05/28 10:09:36;;;;;;;3.23;1.17;;;;;;;;;;5053057;28;20387;-84
2022/05/28 10:12:23;;;;;;;3.23;1.50;;;;;;;;;;5055721;28;20391;-86
2022/05/28 10:15:00;;;;;;;4.93;1.40;;;;;;;;;;5067516;28;20375;-85
2022/05/28 10:17:29;;;;;;;3.20;1.27;;;;;;;;;;5045985;28;20423;-85
2022/05/28 10:19:56;;;;;;;2.10;1.10;;;;;;;;;;5043112;28;20383;-84
2022/05/28 10:22:24;;;;;;;3.53;1.40;;;;;;;;;;5065740;28;20397;-84
2022/05/28 10:24:56;;;;;;;2.67;1.08;;;;;;;;;;5022983;28;20498;-85
2022/05/28 10:27:46;;;;;;;2.70;1.50;;;;;;;;;;5067760;28;20414;-86
2022/05/28 10:30:24;;;;;;;2.27;1.27;;;;;;;;;;5073070;28;20405;-84
2022/05/28 10:32:51;;;;;;;4.60;1.15;;;;;;;;;;5072925;28;20372;-84
2022/05/28 10:35:27;;;;;;;4.10;1.48;;;;;;;;;;5055816;28;20389;-84
2022/05/28 10:37:53;;;;;;;4.00;1.55;;;;;;;;;;5058449;28;20874;-84
2022/05/28 10:40:22;;;;;;;2.80;1.20;;;;;;;;;;5072660;28;20406;-84
2022/05/28 10:42:48;;;;;;;2.30;1.25;;;;;;;;;;5051441;28;20437;-84
2022/05/28 10:45:18;;;;;;;2.65;1.15;;;;;;;;;;5037863;28;20410;-84
2022/05/28 10:47:44;;;;;;;3.03;1.25;;;;;;;;;;5047446;28;20856;-84
2022/05/28 10:50:13;;;;;;;2.92;1.02;;;;;;;;;;5040612;28;20415;-85
2022/05/28 10:52:45;;;;;;;2.40;1.17;;;;;;;;;;5035138;28;20886;-85
2022/05/28 10:55:20;;;;;;;3.40;1.23;;;;;;;;;;5072333;28;20390;-84
2022/05/28 10:57:52;;;;;;;2.40;1.30;;;;;;;;;;5072492;28;20380;-84
2022/05/28 11:00:20;;;;;;;3.92;1.33;;;;;;;;;;5067624;28;20416;-84
2022/05/28 11:02:56;;;;;;;2.75;1.38;;;;;;;;;;5062996;28;20899;-85
2022/05/28 11:05:41;;;;;;;4.00;1.20;;;;;;;;;;5047235;28;20409;-85
2022/05/28 11:08:23;;;;;;;5.03;1.40;;;;;;;;;;5050165;28;20809;-86
2022/05/28 11:10:58;;;;;;;1.52;0.93;;;;;;;;;;5028341;28;20375;-86
2022/05/28 11:13:37;;;;;;;2.53;1.17;;;;;;;;;;5072123;28;20384;-86
2022/05/28 11:16:11;;;;;;;2.38;1.40;;;;;;;;;;5060962;28;20385;-85
2022/05/28 11:18:43;;;;;;;3.47;1.25;;;;;;;;;;5051745;28;20393;-86
2022/05/28 11:21:18;;;;;;;3.53;1.38;;;;;;;;;;5065908;28;20401;-85
2022/05/28 11:23:59;;;;;;;4.10;1.60;;;;;;;;;;5067168;28;20391;-85
2022/05/28 11:26:25;;;;;;;3.05;1.33;;;;;;;;;;5072018;28;20407;-84
2022/05/28 11:29:03;;;;;;;3.28;1.38;;;;;;;;;;5071600;28;20387;-84
2022/05/28 11:31:42;;;;;;;2.93;1.40;;;;;;;;;;5071820;28;20876;-85
2022/05/28 11:34:13;;;;;;;3.75;1.40;;;;;;;;;;5069087;28;20433;-84
2022/05/28 11:36:42;;;;;;;3.60;1.50;;;;;;;;;;5059167;28;20382;-86
2022/05/28 11:39:28;;;;;;;2.85;1.52;;;;;;;;;;5067743;28;20462;-86
2022/05/28 11:42:06;;;;;;;2.65;1.30;;;;;;;;;;5039166;28;20419;-86
2022/05/28 11:44:54;;;;;;;3.90;1.50;;;;;;;;;;5042071;28;20426;-87
2022/05/28 11:47:37;;;;;;;2.78;1.40;;;;;;;;;;5071632;28;20911;-87
2022/05/28 11:52:55;;;;;;;2.92;1.27;;;;;;;;;;5068106;28;20383;-87
2022/05/28 11:55:29;;;;;;;2.40;1.30;;;;;;;;;;5070009;28;20395;-88
2022/05/28 11:58:00;;;;;;;2.87;1.30;;;;;;;;;;5033131;28;20420;-87
2022/05/28 12:00:27;;;;;;;2.92;1.20;;;;;;;;;;5053503;28;20401;-87
2022/05/28 12:03:01;;;;;;;6.05;1.33;;;;;;;;;;5047700;28;20427;-89
2022/05/28 12:05:42;;;;;;;2.35;1.23;;;;;;;;;;5050328;28;20417;-87
2022/05/28 12:08:10;;;;;;;3.80;1.20;;;;;;;;;;5034863;28;20432;-87
2022/05/28 12:10:45;;;;;;;3.00;1.20;;;;;;;;;;5036441;28;20385;-86
2022/05/28 12:13:11;;;;;;;4.32;1.40;;;;;;;;;;5033230;28;20375;-86
2022/05/28 12:15:38;;;;;;;2.05;1.10;;;;;;;;;;5036120;28;20383;-85
2022/05/28 12:18:23;;;;;;;4.93;1.17;;;;;;;;;;5052189;28;20764;-85
2022/05/28 12:20:51;;;;;;;1.92;1.05;;;;;;;;;;5057015;28;20458;-86
2022/05/28 12:23:27;;;;;;;7.00;1.60;;;;;;;;;;5053297;28;20904;-85
2022/05/28 12:25:53;;;;;;;2.10;1.05;;;;;;;;;;5071270;28;20412;-86
2022/05/28 12:28:27;;;;;;;2.88;1.05;;;;;;;;;;5053414;28;20383;-86
2022/05/28 12:30:54;;;;;;;2.90;1.13;;;;;;;;;;5054545;28;20377;-86
2022/05/28 12:33:48;;;;;;;2.77;1.10;;;;;;;;;;5061512;28;20421;-85
2022/05/28 12:36:17;;;;;;;2.45;1.20;;;;;;;;;;5071340;28;20899;-86
2022/05/28 12:38:46;;;;;;;2.67;1.00;;;;;;;;;;5071234;28;20383;-87
2022/05/28 12:41:17;;;;;;;3.38;1.17;;;;;;;;;;5037800;28;20449;-87
2022/05/28 12:43:44;;;;;;;3.25;1.30;;;;;;;;;;5054562;28;20375;-86
2022/05/28 12:46:22;;;;;;;3.93;1.10;;;;;;;;;;5071060;28;20518;-85
2022/05/28 12:49:03;;;;;;;2.60;1.30;;;;;;;;;;5071159;28;20429;-85
2022/05/28 12:51:36;;;;;;;3.03;1.00;;;;;;;;;;5070988;28;20376;-85
2022/05/28 12:54:04;;;;;;;4.18;1.23;;;;;;;;;;5071170;28;20479;-90
2022/05/28 12:56:36;;;;;;;2.72;1.13;;;;;;;;;;5041673;28;20390;-91
2022/05/28 12:59:11;;;;;;;2.38;1.00;;;;;;;;;;5044223;28;20431;-91
2022/05/28 13:01:38;;;;;;;1.85;1.00;;;;;;;;;;5069691;28;20383;-91
2022/05/28 13:04:18;;;;;;;2.33;1.00;;;;;;;;;;5074730;28;20376;-85
2022/05/28 13:06:47;;;;;;;3.28;1.27;;;;;;;;;;5064982;28;20403;-85
2022/05/28 13:09:13;;;;;;;1.52;1.00;;;;;;;;;;5074559;28;20379;-85
2022/05/28 13:11:48;;;;;;;3.53;1.00;;;;;;;;;;5051891;28;20372;-86
2022/05/28 13:14:34;;;;;;;2.45;0.93;;;;;;;;;;5056743;28;20380;-86
2022/05/28 13:17:00;;;;;;;2.85;1.00;;;;;;;;;;5074333;28;20907;-86
2022/05/28 13:19:41;;;;;;;3.85;0.90;;;;;;;;;;5074436;28;20376;-86
2022/05/28 13:22:10;;;;;;;2.22;0.98;;;;;;;;;;5074114;28;20390;-86
2022/05/28 13:24:42;;;;;;;4.15;1.35;;;;;;;;;;5074202;28;20380;-87
2022/05/28 13:27:08;;;;;;;2.92;0.80;;;;;;;;;;5056578;28;20372;-86
2022/05/28 13:29:40;;;;;;;1.33;0.90;;;;;;;;;;5074232;28;20541;-88
2022/05/28 13:32:11;;;;;;;2.37;1.00;;;;;;;;;;5074061;28;20437;-86
2022/05/28 13:34:37;;;;;;;3.40;1.00;;;;;;;;;;5071428;28;20380;-87
2022/05/28 13:37:03;;;;;;;2.00;0.90;;;;;;;;;;5041724;28;20399;-87
2022/05/28 13:39:31;;;;;;;2.83;1.10;;;;;;;;;;5073926;28;20376;-88
2022/05/28 13:41:58;;;;;;;1.65;0.77;;;;;;;;;;5062642;28;20891;-89
2022/05/28 13:44:29;;;;;;;5.32;1.20;;;;;;;;;;5068475;28;20380;-88
2022/05/28 13:47:01;;;;;;;2.17;0.93;;;;;;;;;;5073986;28;20841;-89
2022/05/28 13:49:28;;;;;;;2.63;1.00;;;;;;;;;;5073751;28;20374;-89
2022/05/28 13:51:56;;;;;;;2.10;0.80;;;;;;;;;;5073468;28;20380;-88
2022/05/28 13:54:22;;;;;;;0.65;0.60;;;;;;;;;;5054545;28;20376;-89
2022/05/28 13:57:02;;;;;;;1.85;0.85;;;;;;;;;;5072395;28;20379;-89
2022/05/28 13:59:34;;;;;;;2.03;0.80;;;;;;;;;;5072983;28;20406;-87
2022/05/28 14:02:00;;;;;;;1.95;0.70;;;;;;;;;;5072843;28;20852;-87
2022/05/28 14:04:30;;;;;;;2.17;0.60;;;;;;;;;;5073137;28;20390;-87
2022/05/28 14:07:03;;;;;;;4.53;1.00;;;;;;;;;;5073172;28;20383;-87
2022/05/28 14:09:40;;;;;;;1.67;0.50;;;;;;;;;;5073409;28;20371;-87
2022/05/28 14:12:10;;;;;;;2.95;0.60;;;;;;;;;;5069951;28;20797;-87
2022/05/28 14:14:38;;;;;;;1.30;0.50;;;;;;;;;;5024454;28;20461;-87
2022/05/28 14:17:05;;;;;;;0.80;0.50;;;;;;;;;;5033548;28;20378;-84
2022/05/28 14:19:32;;;;;;;1.73;0.70;;;;;;;;;;5052108;28;20459;-89
2022/05/28 14:22:00;;;;;;;1.15;0.50;;;;;;;;;;5053257;28;20377;-92
2022/05/28 14:24:27;;;;;;;1.75;0.63;;;;;;;;;;5061880;28;20379;-91
2022/05/28 14:26:59;;;;;;;2.15;0.70;;;;;;;;;;5073177;28;20399;-89
2022/05/28 14:29:39;;;;;;;1.70;0.60;;;;;;;;;;5073090;28;20398;-90
2022/05/28 14:32:06;;;;;;;1.00;0.50;;;;;;;;;;5072980;28;20384;-89
2022/05/28 14:34:32;;;;;;;2.03;0.70;;;;;;;;;;5072955;28;20379;-88
2022/05/28 14:36:59;;;;;;;1.40;0.50;;;;;;;;;;5072959;28;20896;-89
2022/05/28 14:39:26;;;;;;;1.35;0.60;;;;;;;;;;5068805;28;20373;-87
2022/05/28 14:42:02;;;;;;;1.25;0.65;;;;;;;;;;5052674;28;20386;-85
2022/05/28 14:44:29;;;;;;;1.65;0.68;;;;;;;;;;5056526;28;20384;-87
2022/05/28 14:46:55;;;;;;;3.22;0.73;;;;;;;;;;5072817;28;20376;-89
2022/05/28 14:49:29;;;;;;;1.95;0.50;;;;;;;;;;5054626;28;20372;-87
2022/05/28 14:51:57;;;;;;;3.65;0.80;;;;;;;;;;5072619;28;20375;-88
2022/05/28 14:54:34;;;;;;;4.43;1.00;;;;;;;;;;5072737;28;20376;-87
2022/05/28 14:57:01;;;;;;;1.90;0.50;;;;;;;;;;5072283;28;20871;-87
2022/05/28 14:59:54;;;;;;;1.30;0.60;;;;;;;;;;5061032;28;20490;-88